sensor_id;sensor_type;location;lat;lon;timestamp;pressure;altitude;pressure_sealevel;temperature;humidity
55801;BME280;41730;51.960;20.158;2024-03-23T01:06:05;99357.48;;;10.57;80.81
55801;BME280;41730;51.960;20.158;2024-03-23T01:08:37;99355.31;;;10.59;81.03
55801;BME280;41730;51.960;20.158;2024-03-23T01:11:08;99355.44;;;10.62;81.02
55801;BME280;41730;51.960;20.158;2024-03-23T01:13:39;99354.64;;;10.62;81.26
55801;BME280;41730;51.960;20.158;2024-03-23T01:16:10;99354.58;;;10.63;81.54
55801;BME280;41730;51.960;20.158;2024-03-23T01:18:42;99350.04;;;10.63;81.67
55801;BME280;41730;51.960;20.158;2024-03-23T01:21:13;99349.38;;;10.64;82.03
55801;BME280;41730;51.960;20.158;2024-03-23T01:23:44;99346.65;;;10.65;82.03
55801;BME280;41730;51.960;20.158;2024-03-23T01:26:15;99341.77;;;10.69;82.19
55801;BME280;41730;51.960;20.158;2024-03-23T01:28:46;99342.61;;;10.71;82.03
55801;BME280;41730;51.960;20.158;2024-03-23T01:31:17;99342.83;;;10.70;82.33
55801;BME280;41730;51.960;20.158;2024-03-23T01:33:49;99338.95;;;10.71;82.44
55801;BME280;41730;51.960;20.158;2024-03-23T01:36:20;99338.16;;;10.70;82.65
55801;BME280;41730;51.960;20.158;2024-03-23T01:38:52;99338.82;;;10.70;82.71
55801;BME280;41730;51.960;20.158;2024-03-23T01:41:25;99332.25;;;10.71;82.81
55801;BME280;41730;51.960;20.158;2024-03-23T01:43:57;99333.25;;;10.72;82.92
55801;BME280;41730;51.960;20.158;2024-03-23T01:46:28;99324.77;;;10.72;82.98
55801;BME280;41730;51.960;20.158;2024-03-23T01:48:59;99322.20;;;10.71;83.19
55801;BME280;41730;51.960;20.158;2024-03-23T01:51:31;99321.39;;;10.71;83.14
55801;BME280;41730;51.960;20.158;2024-03-23T01:54:04;99321.77;;;10.71;83.36
55801;BME280;41730;51.960;20.158;2024-03-23T01:56:36;99323.25;;;10.71;83.37
55801;BME280;41730;51.960;20.158;2024-03-23T01:59:07;99320.36;;;10.72;83.40
55801;BME280;41730;51.960;20.158;2024-03-23T02:01:38;99325.72;;;10.71;83.47
55801;BME280;41730;51.960;20.158;2024-03-23T02:04:09;99322.29;;;10.71;83.58
55801;BME280;41730;51.960;20.158;2024-03-23T02:06:41;99319.98;;;10.69;83.54
55801;BME280;41730;51.960;20.158;2024-03-23T02:09:12;99315.27;;;10.69;83.74
55801;BME280;41730;51.960;20.158;2024-03-23T02:11:45;99317.77;;;10.68;83.77
55801;BME280;41730;51.960;20.158;2024-03-23T02:14:16;99312.42;;;10.66;83.92
55801;BME280;41730;51.960;20.158;2024-03-23T02:16:47;99312.04;;;10.64;84.01
55801;BME280;41730;51.960;20.158;2024-03-23T02:19:18;99308.21;;;10.62;84.11
55801;BME280;41730;51.960;20.158;2024-03-23T02:21:49;99296.17;;;10.62;84.26
55801;BME280;41730;51.960;20.158;2024-03-23T02:24:21;99294.43;;;10.61;84.23
55801;BME280;41730;51.960;20.158;2024-03-23T02:26:52;99297.98;;;10.61;84.16
55801;BME280;41730;51.960;20.158;2024-03-23T02:29:24;99296.40;;;10.61;84.23
55801;BME280;41730;51.960;20.158;2024-03-23T02:31:55;99296.08;;;10.61;84.17
55801;BME280;41730;51.960;20.158;2024-03-23T02:34:28;99290.88;;;10.60;84.37
55801;BME280;41730;51.960;20.158;2024-03-23T02:36:59;99291.95;;;10.58;84.38
55801;BME280;41730;51.960;20.158;2024-03-23T02:39:32;99286.92;;;10.58;84.42
55801;BME280;41730;51.960;20.158;2024-03-23T02:42:04;99285.85;;;10.58;84.44
55801;BME280;41730;51.960;20.158;2024-03-23T02:44:36;99280.40;;;10.56;84.61
55801;BME280;41730;51.960;20.158;2024-03-23T02:47:08;99280.67;;;10.59;84.61
55801;BME280;41730;51.960;20.158;2024-03-23T02:49:39;99275.98;;;10.58;84.59
55801;BME280;41730;51.960;20.158;2024-03-23T02:52:10;99280.00;;;10.59;84.58
55801;BME280;41730;51.960;20.158;2024-03-23T02:54:41;99280.15;;;10.59;84.61
55801;BME280;41730;51.960;20.158;2024-03-23T02:57:14;99280.74;;;10.60;84.65
55801;BME280;41730;51.960;20.158;2024-03-23T02:59:45;99278.59;;;10.62;84.63
55801;BME280;41730;51.960;20.158;2024-03-23T03:02:16;99274.46;;;10.63;84.54
55801;BME280;41730;51.960;20.158;2024-03-23T03:04:47;99275.70;;;10.65;84.60
55801;BME280;41730;51.960;20.158;2024-03-23T03:07:18;99265.79;;;10.68;84.47
55801;BME280;41730;51.960;20.158;2024-03-23T03:09:49;99263.05;;;10.69;84.48
55801;BME280;41730;51.960;20.158;2024-03-23T03:12:20;99260.02;;;10.69;84.42
55801;BME280;41730;51.960;20.158;2024-03-23T03:14:50;99263.08;;;10.69;84.53
55801;BME280;41730;51.960;20.158;2024-03-23T03:17:21;99263.34;;;10.69;84.43
55801;BME280;41730;51.960;20.158;2024-03-23T03:19:53;99264.08;;;10.71;84.58
55801;BME280;41730;51.960;20.158;2024-03-23T03:22:25;99259.82;;;10.71;84.45
55801;BME280;41730;51.960;20.158;2024-03-23T03:24:56;99263.05;;;10.72;84.40
55801;BME280;41730;51.960;20.158;2024-03-23T03:27:27;99262.46;;;10.71;84.40
55801;BME280;41730;51.960;20.158;2024-03-23T03:29:58;99260.52;;;10.69;84.60
55801;BME280;41730;51.960;20.158;2024-03-23T03:32:31;99261.39;;;10.68;84.58
55801;BME280;41730;51.960;20.158;2024-03-23T03:35:03;99261.41;;;10.66;84.66
55801;BME280;41730;51.960;20.158;2024-03-23T03:37:34;99252.83;;;10.64;84.76
55801;BME280;41730;51.960;20.158;2024-03-23T03:40:07;99250.62;;;10.63;84.80
55801;BME280;41730;51.960;20.158;2024-03-23T03:42:39;99247.00;;;10.62;84.94
55801;BME280;41730;51.960;20.158;2024-03-23T03:45:10;99236.73;;;10.62;84.89
55801;BME280;41730;51.960;20.158;2024-03-23T03:47:43;99231.42;;;10.61;84.87
55801;BME280;41730;51.960;20.158;2024-03-23T03:50:15;99231.08;;;10.59;85.09
55801;BME280;41730;51.960;20.158;2024-03-23T03:52:47;99233.10;;;10.58;85.34
55801;BME280;41730;51.960;20.158;2024-03-23T03:55:18;99235.36;;;10.58;85.21
55801;BME280;41730;51.960;20.158;2024-03-23T03:57:49;99230.30;;;10.58;85.19
55801;BME280;41730;51.960;20.158;2024-03-23T04:00:21;99226.39;;;10.57;85.22
55801;BME280;41730;51.960;20.158;2024-03-23T04:02:52;99224.31;;;10.56;85.54
55801;BME280;41730;51.960;20.158;2024-03-23T04:05:26;99228.03;;;10.58;85.37
55801;BME280;41730;51.960;20.158;2024-03-23T04:08:01;99220.81;;;10.58;85.46
55801;BME280;41730;51.960;20.158;2024-03-23T04:10:38;99221.45;;;10.59;85.45
55801;BME280;41730;51.960;20.158;2024-03-23T04:13:16;99225.59;;;10.59;85.45
55801;BME280;41730;51.960;20.158;2024-03-23T04:15:49;99219.40;;;10.62;85.41
55801;BME280;41730;51.960;20.158;2024-03-23T04:18:24;99217.66;;;10.63;85.42
55801;BME280;41730;51.960;20.158;2024-03-23T04:20:55;99211.83;;;10.65;85.30
55801;BME280;41730;51.960;20.158;2024-03-23T04:23:26;99208.66;;;10.67;85.31
55801;BME280;41730;51.960;20.158;2024-03-23T04:25:57;99206.59;;;10.71;85.30
55801;BME280;41730;51.960;20.158;2024-03-23T04:28:32;99205.42;;;10.72;85.28
55801;BME280;41730;51.960;20.158;2024-03-23T04:31:06;99198.02;;;10.72;85.31
55801;BME280;41730;51.960;20.158;2024-03-23T04:33:37;99191.56;;;10.74;85.19
55801;BME280;41730;51.960;20.158;2024-03-23T04:36:08;99191.03;;;10.74;85.17
55801;BME280;41730;51.960;20.158;2024-03-23T04:38:39;99187.85;;;10.74;85.24
55801;BME280;41730;51.960;20.158;2024-03-23T04:41:11;99188.23;;;10.76;85.23
55801;BME280;41730;51.960;20.158;2024-03-23T04:43:41;99189.58;;;10.76;85.29
55801;BME280;41730;51.960;20.158;2024-03-23T04:46:13;99189.58;;;10.76;85.30
55801;BME280;41730;51.960;20.158;2024-03-23T04:48:44;99186.06;;;10.76;85.22
55801;BME280;41730;51.960;20.158;2024-03-23T04:51:22;99185.98;;;10.77;85.29
55801;BME280;41730;51.960;20.158;2024-03-23T04:53:53;99179.06;;;10.78;85.33
55801;BME280;41730;51.960;20.158;2024-03-23T04:56:25;99177.29;;;10.80;85.34
55801;BME280;41730;51.960;20.158;2024-03-23T04:58:57;99174.98;;;10.81;85.40
55801;BME280;41730;51.960;20.158;2024-03-23T05:01:30;99172.71;;;10.81;85.27
55801;BME280;41730;51.960;20.158;2024-03-23T05:04:02;99165.16;;;10.83;85.29
55801;BME280;41730;51.960;20.158;2024-03-23T05:06:34;99167.52;;;10.86;85.13
55801;BME280;41730;51.960;20.158;2024-03-23T05:09:05;99166.32;;;10.87;85.23
55801;BME280;41730;51.960;20.158;2024-03-23T05:11:37;99164.75;;;10.89;85.21
55801;BME280;41730;51.960;20.158;2024-03-23T05:14:08;99159.20;;;10.91;85.24
55801;BME280;41730;51.960;20.158;2024-03-23T05:16:40;99157.00;;;10.93;85.17
55801;BME280;41730;51.960;20.158;2024-03-23T05:19:11;99161.92;;;10.96;85.22
55801;BME280;41730;51.960;20.158;2024-03-23T05:21:42;99154.42;;;11.00;84.90
55801;BME280;41730;51.960;20.158;2024-03-23T05:24:14;99148.39;;;11.02;84.95
55801;BME280;41730;51.960;20.158;2024-03-23T05:26:45;99140.73;;;11.05;85.08
55801;BME280;41730;51.960;20.158;2024-03-23T05:29:16;99137.85;;;11.07;84.82
55801;BME280;41730;51.960;20.158;2024-03-23T05:31:51;99133.19;;;11.08;84.90
55801;BME280;41730;51.960;20.158;2024-03-23T05:34:23;99131.17;;;11.09;84.82
55801;BME280;41730;51.960;20.158;2024-03-23T05:36:54;99131.52;;;11.11;84.85
55801;BME280;41730;51.960;20.158;2024-03-23T05:39:25;99131.35;;;11.11;84.86
55801;BME280;41730;51.960;20.158;2024-03-23T05:41:57;99130.40;;;11.10;84.94
55801;BME280;41730;51.960;20.158;2024-03-23T05:44:28;99137.34;;;11.11;84.98
55801;BME280;41730;51.960;20.158;2024-03-23T05:46:59;99138.06;;;11.11;84.91
55801;BME280;41730;51.960;20.158;2024-03-23T05:49:30;99138.71;;;11.11;84.99
55801;BME280;41730;51.960;20.158;2024-03-23T05:52:01;99139.92;;;11.11;84.96
55801;BME280;41730;51.960;20.158;2024-03-23T05:54:33;99139.66;;;11.12;85.08
55801;BME280;41730;51.960;20.158;2024-03-23T05:57:04;99131.97;;;11.14;85.07
55801;BME280;41730;51.960;20.158;2024-03-23T05:59:37;99133.35;;;11.15;85.19
55801;BME280;41730;51.960;20.158;2024-03-23T06:02:08;99128.70;;;11.18;84.65
55801;BME280;41730;51.960;20.158;2024-03-23T06:04:40;99120.55;;;11.20;84.91
55801;BME280;41730;51.960;20.158;2024-03-23T06:07:12;99120.69;;;11.22;84.95
55801;BME280;41730;51.960;20.158;2024-03-23T06:09:44;99122.21;;;11.25;84.82
55801;BME280;41730;51.960;20.158;2024-03-23T06:12:14;99117.82;;;11.26;84.87
55801;BME280;41730;51.960;20.158;2024-03-23T06:14:46;99110.98;;;11.28;84.77
55801;BME280;41730;51.960;20.158;2024-03-23T06:17:18;99108.98;;;11.30;84.91
55801;BME280;41730;51.960;20.158;2024-03-23T06:19:49;99114.10;;;11.34;84.95
55801;BME280;41730;51.960;20.158;2024-03-23T06:22:20;99108.73;;;11.37;84.78
55801;BME280;41730;51.960;20.158;2024-03-23T06:24:52;99104.80;;;11.39;84.97
55801;BME280;41730;51.960;20.158;2024-03-23T06:27:23;99103.69;;;11.41;84.87
55801;BME280;41730;51.960;20.158;2024-03-23T06:29:54;99101.31;;;11.42;84.51
55801;BME280;41730;51.960;20.158;2024-03-23T06:32:25;99104.92;;;11.43;84.78
55801;BME280;41730;51.960;20.158;2024-03-23T06:34:57;99102.73;;;11.45;84.66
55801;BME280;41730;51.960;20.158;2024-03-23T06:37:29;99098.73;;;11.46;84.83
55801;BME280;41730;51.960;20.158;2024-03-23T06:40:00;99098.62;;;11.46;84.90
55801;BME280;41730;51.960;20.158;2024-03-23T06:42:31;99090.09;;;11.47;85.01
55801;BME280;41730;51.960;20.158;2024-03-23T06:45:03;99092.73;;;11.49;84.61
55801;BME280;41730;51.960;20.158;2024-03-23T06:47:35;99088.24;;;11.49;84.56
55801;BME280;41730;51.960;20.158;2024-03-23T06:50:08;99083.57;;;11.49;84.64
55801;BME280;41730;51.960;20.158;2024-03-23T06:52:41;99077.45;;;11.49;84.84
55801;BME280;41730;51.960;20.158;2024-03-23T06:55:14;99077.14;;;11.50;84.72
55801;BME280;41730;51.960;20.158;2024-03-23T06:57:46;99078.41;;;11.51;84.96
55801;BME280;41730;51.960;20.158;2024-03-23T07:00:17;99074.64;;;11.52;84.94
55801;BME280;41730;51.960;20.158;2024-03-23T07:02:50;99071.55;;;11.55;85.06
55801;BME280;41730;51.960;20.158;2024-03-23T07:05:21;99064.61;;;11.57;84.95
55801;BME280;41730;51.960;20.158;2024-03-23T07:07:53;99059.75;;;11.60;84.97
55801;BME280;41730;51.960;20.158;2024-03-23T07:10:24;99054.77;;;11.64;84.86
55801;BME280;41730;51.960;20.158;2024-03-23T07:12:56;99051.40;;;11.67;84.81
55801;BME280;41730;51.960;20.158;2024-03-23T07:15:27;99049.98;;;11.72;84.82
55801;BME280;41730;51.960;20.158;2024-03-23T07:17:58;99052.40;;;11.78;84.98
55801;BME280;41730;51.960;20.158;2024-03-23T07:20:29;99045.42;;;11.84;84.78
55801;BME280;41730;51.960;20.158;2024-03-23T07:23:01;99049.08;;;11.90;84.66
55801;BME280;41730;51.960;20.158;2024-03-23T07:25:32;99049.23;;;11.95;84.65
55801;BME280;41730;51.960;20.158;2024-03-23T07:28:03;99049.71;;;12.00;84.72
55801;BME280;41730;51.960;20.158;2024-03-23T07:30:34;99048.36;;;12.06;84.65
55801;BME280;41730;51.960;20.158;2024-03-23T07:33:06;99048.62;;;12.14;84.23
55801;BME280;41730;51.960;20.158;2024-03-23T07:35:37;99046.31;;;12.22;84.45
55801;BME280;41730;51.960;20.158;2024-03-23T07:38:08;99038.95;;;12.30;84.42
55801;BME280;41730;51.960;20.158;2024-03-23T07:40:39;99034.90;;;12.37;84.16
55801;BME280;41730;51.960;20.158;2024-03-23T07:43:10;99034.34;;;12.40;84.05
55801;BME280;41730;51.960;20.158;2024-03-23T07:45:41;99031.52;;;12.45;83.96
55801;BME280;41730;51.960;20.158;2024-03-23T07:48:12;99029.60;;;12.51;83.81
55801;BME280;41730;51.960;20.158;2024-03-23T07:50:44;99028.52;;;12.55;83.53
55801;BME280;41730;51.960;20.158;2024-03-23T07:53:15;99025.80;;;12.59;83.67
55801;BME280;41730;51.960;20.158;2024-03-23T07:55:56;99022.38;;;12.63;83.37
55801;BME280;41730;51.960;20.158;2024-03-23T07:58:28;99014.73;;;12.67;83.45
55801;BME280;41730;51.960;20.158;2024-03-23T08:01:05;99010.09;;;12.80;83.56
55801;BME280;41730;51.960;20.158;2024-03-23T08:03:38;99003.02;;;13.03;83.56
55801;BME280;41730;51.960;20.158;2024-03-23T08:06:11;98996.23;;;13.27;83.00
55801;BME280;41730;51.960;20.158;2024-03-23T08:08:45;98987.05;;;13.51;82.42
55801;BME280;41730;51.960;20.158;2024-03-23T08:11:17;98975.57;;;13.82;82.23
55801;BME280;41730;51.960;20.158;2024-03-23T08:13:49;98964.19;;;14.15;81.49
55801;BME280;41730;51.960;20.158;2024-03-23T08:16:20;98963.29;;;14.49;80.68
55801;BME280;41730;51.960;20.158;2024-03-23T08:18:54;98961.23;;;14.77;79.79
55801;BME280;41730;51.960;20.158;2024-03-23T08:21:26;98963.80;;;15.00;79.25
55801;BME280;41730;51.960;20.158;2024-03-23T08:23:59;98959.33;;;15.23;78.41
55801;BME280;41730;51.960;20.158;2024-03-23T08:26:31;98955.92;;;15.39;77.81
55801;BME280;41730;51.960;20.158;2024-03-23T08:29:02;98954.71;;;15.55;77.47
55801;BME280;41730;51.960;20.158;2024-03-23T08:31:35;98950.80;;;15.74;77.05
55801;BME280;41730;51.960;20.158;2024-03-23T08:34:07;98948.06;;;15.93;76.56
55801;BME280;41730;51.960;20.158;2024-03-23T08:36:40;98940.55;;;16.15;76.02
55801;BME280;41730;51.960;20.158;2024-03-23T08:39:12;98928.80;;;16.29;75.17
55801;BME280;41730;51.960;20.158;2024-03-23T08:41:53;98920.93;;;16.37;74.72
55801;BME280;41730;51.960;20.158;2024-03-23T08:44:25;98921.48;;;16.48;74.39
55801;BME280;41730;51.960;20.158;2024-03-23T08:46:58;98919.99;;;16.62;73.80
55801;BME280;41730;51.960;20.158;2024-03-23T08:49:31;98918.58;;;16.74;73.14
55801;BME280;41730;51.960;20.158;2024-03-23T08:52:05;98918.85;;;16.72;72.67
55801;BME280;41730;51.960;20.158;2024-03-23T08:54:36;98915.41;;;16.68;72.41
55801;BME280;41730;51.960;20.158;2024-03-23T08:57:09;98909.61;;;16.60;72.28
55801;BME280;41730;51.960;20.158;2024-03-23T08:59:41;98908.52;;;16.50;71.77
55801;BME280;41730;51.960;20.158;2024-03-23T09:02:14;98904.75;;;16.34;71.99
55801;BME280;41730;51.960;20.158;2024-03-23T09:04:47;98901.00;;;16.21;71.95
55801;BME280;41730;51.960;20.158;2024-03-23T09:07:23;98893.23;;;16.11;71.99
55801;BME280;41730;51.960;20.158;2024-03-23T09:09:57;98893.91;;;16.03;71.97
55801;BME280;41730;51.960;20.158;2024-03-23T09:12:31;98883.11;;;15.98;71.79
55801;BME280;41730;51.960;20.158;2024-03-23T09:15:03;98878.14;;;15.98;71.70
55801;BME280;41730;51.960;20.158;2024-03-23T09:17:38;98869.65;;;16.04;71.67
55801;BME280;41730;51.960;20.158;2024-03-23T09:20:11;98863.89;;;16.16;71.62
55801;BME280;41730;51.960;20.158;2024-03-23T09:22:45;98849.88;;;16.28;71.46
55801;BME280;41730;51.960;20.158;2024-03-23T09:25:19;98843.87;;;16.39;70.96
55801;BME280;41730;51.960;20.158;2024-03-23T09:27:51;98831.73;;;16.47;70.34
55801;BME280;41730;51.960;20.158;2024-03-23T09:30:23;98828.61;;;16.53;70.00
55801;BME280;41730;51.960;20.158;2024-03-23T09:32:54;98817.97;;;16.66;70.13
55801;BME280;41730;51.960;20.158;2024-03-23T09:35:27;98808.39;;;16.84;69.65
55801;BME280;41730;51.960;20.158;2024-03-23T09:37:58;98801.45;;;16.91;68.20
55801;BME280;41730;51.960;20.158;2024-03-23T09:40:29;98790.51;;;16.93;67.95
55801;BME280;41730;51.960;20.158;2024-03-23T09:43:01;98783.41;;;17.01;67.72
55801;BME280;41730;51.960;20.158;2024-03-23T09:45:34;98778.77;;;17.12;67.48
55801;BME280;41730;51.960;20.158;2024-03-23T09:48:08;98771.86;;;17.17;67.25
55801;BME280;41730;51.960;20.158;2024-03-23T09:50:40;98764.91;;;17.25;67.27
55801;BME280;41730;51.960;20.158;2024-03-23T09:53:13;98760.19;;;17.34;66.82
55801;BME280;41730;51.960;20.158;2024-03-23T09:55:46;98754.51;;;17.37;65.97
55801;BME280;41730;51.960;20.158;2024-03-23T09:58:19;98753.69;;;17.41;65.59
55801;BME280;41730;51.960;20.158;2024-03-23T10:00:51;98747.27;;;17.45;65.05
55801;BME280;41730;51.960;20.158;2024-03-23T10:03:22;98737.13;;;17.48;64.74
55801;BME280;41730;51.960;20.158;2024-03-23T10:06:04;98728.98;;;17.50;63.69
55801;BME280;41730;51.960;20.158;2024-03-23T10:08:37;98728.13;;;17.49;64.11
55801;BME280;41730;51.960;20.158;2024-03-23T10:11:16;98718.25;;;17.53;63.95
55801;BME280;41730;51.960;20.158;2024-03-23T10:13:48;98715.30;;;17.56;63.85
55801;BME280;41730;51.960;20.158;2024-03-23T10:16:26;98714.84;;;17.59;63.75
55801;BME280;41730;51.960;20.158;2024-03-23T10:19:02;98714.09;;;17.68;64.14
55801;BME280;41730;51.960;20.158;2024-03-23T10:21:34;98707.47;;;17.77;63.83
55801;BME280;41730;51.960;20.158;2024-03-23T10:24:12;98710.23;;;17.82;63.60
55801;BME280;41730;51.960;20.158;2024-03-23T10:26:44;98710.34;;;17.85;63.45
55801;BME280;41730;51.960;20.158;2024-03-23T10:29:19;98702.52;;;17.81;62.72
55801;BME280;41730;51.960;20.158;2024-03-23T10:31:50;98698.98;;;17.75;62.18
55801;BME280;41730;51.960;20.158;2024-03-23T10:34:27;98696.33;;;17.69;62.32
55801;BME280;41730;51.960;20.158;2024-03-23T10:37:00;98695.14;;;17.72;62.71
55801;BME280;41730;51.960;20.158;2024-03-23T10:39:34;98689.80;;;17.76;62.22
55801;BME280;41730;51.960;20.158;2024-03-23T10:42:07;98692.41;;;17.77;62.17
55801;BME280;41730;51.960;20.158;2024-03-23T10:44:40;98695.58;;;17.83;61.88
55801;BME280;41730;51.960;20.158;2024-03-23T10:47:11;98693.40;;;17.85;61.36
55801;BME280;41730;51.960;20.158;2024-03-23T10:49:46;98690.16;;;17.86;61.33
55801;BME280;41730;51.960;20.158;2024-03-23T10:52:18;98691.48;;;17.93;61.67
55801;BME280;41730;51.960;20.158;2024-03-23T10:54:52;98685.91;;;18.01;61.63
55801;BME280;41730;51.960;20.158;2024-03-23T10:57:29;98679.73;;;18.10;61.45
55801;BME280;41730;51.960;20.158;2024-03-23T11:00:04;98676.59;;;18.18;61.20
55801;BME280;41730;51.960;20.158;2024-03-23T11:02:36;98669.96;;;18.22;60.20
55801;BME280;41730;51.960;20.158;2024-03-23T11:05:29;98666.30;;;18.23;60.13
55801;BME280;41730;51.960;20.158;2024-03-23T11:08:02;98658.99;;;18.29;60.07
55801;BME280;41730;51.960;20.158;2024-03-23T11:10:34;98640.63;;;18.33;59.57
55801;BME280;41730;51.960;20.158;2024-03-23T11:13:26;98641.87;;;18.38;59.71
55801;BME280;41730;51.960;20.158;2024-03-23T11:16:14;98639.25;;;18.48;59.71
55801;BME280;41730;51.960;20.158;2024-03-23T11:18:46;98635.19;;;18.60;59.37
55801;BME280;41730;51.960;20.158;2024-03-23T11:24:20;98621.73;;;18.66;58.45
55801;BME280;41730;51.960;20.158;2024-03-23T11:26:52;98612.04;;;18.70;58.25
55801;BME280;41730;51.960;20.158;2024-03-23T11:29:24;98612.98;;;18.76;57.95
55801;BME280;41730;51.960;20.158;2024-03-23T11:31:55;98606.27;;;18.80;57.47
55801;BME280;41730;51.960;20.158;2024-03-23T11:34:29;98597.96;;;18.81;56.95
55801;BME280;41730;51.960;20.158;2024-03-23T11:37:05;98591.75;;;18.85;56.13
55801;BME280;41730;51.960;20.158;2024-03-23T11:39:37;98596.73;;;18.95;56.24
55801;BME280;41730;51.960;20.158;2024-03-23T11:42:08;98596.27;;;19.02;55.71
55801;BME280;41730;51.960;20.158;2024-03-23T11:44:40;98583.02;;;19.02;55.67
55801;BME280;41730;51.960;20.158;2024-03-23T11:47:12;98582.15;;;19.01;55.15
55801;BME280;41730;51.960;20.158;2024-03-23T11:49:44;98577.11;;;18.97;54.92
55801;BME280;41730;51.960;20.158;2024-03-23T11:52:19;98570.29;;;18.89;55.02
55801;BME280;41730;51.960;20.158;2024-03-23T11:54:50;98566.55;;;18.83;55.22
55801;BME280;41730;51.960;20.158;2024-03-23T11:57:22;98558.77;;;18.82;55.30
55801;BME280;41730;51.960;20.158;2024-03-23T11:59:55;98555.84;;;18.80;55.31
55801;BME280;41730;51.960;20.158;2024-03-23T12:02:26;98547.05;;;18.80;55.26
55801;BME280;41730;51.960;20.158;2024-03-23T12:04:57;98542.30;;;18.78;55.01
55801;BME280;41730;51.960;20.158;2024-03-23T12:07:28;98541.08;;;18.78;55.22
55801;BME280;41730;51.960;20.158;2024-03-23T12:10:07;98532.98;;;18.75;55.01
55801;BME280;41730;51.960;20.158;2024-03-23T12:12:38;98525.34;;;18.68;54.93
55801;BME280;41730;51.960;20.158;2024-03-23T12:15:11;98522.78;;;18.62;54.93
55801;BME280;41730;51.960;20.158;2024-03-23T12:17:43;98515.55;;;18.55;55.06
55801;BME280;41730;51.960;20.158;2024-03-23T12:20:14;98509.64;;;18.51;55.35
55801;BME280;41730;51.960;20.158;2024-03-23T12:22:45;98508.58;;;18.53;55.59
55801;BME280;41730;51.960;20.158;2024-03-23T12:25:17;98505.04;;;18.54;55.75
55801;BME280;41730;51.960;20.158;2024-03-23T12:27:48;98497.60;;;18.52;55.81
55801;BME280;41730;51.960;20.158;2024-03-23T12:30:19;98486.45;;;18.49;55.71
55801;BME280;41730;51.960;20.158;2024-03-23T12:32:52;98482.80;;;18.46;55.70
55801;BME280;41730;51.960;20.158;2024-03-23T12:35:32;98475.41;;;18.43;55.77
55801;BME280;41730;51.960;20.158;2024-03-23T12:38:05;98467.50;;;18.43;55.88
55801;BME280;41730;51.960;20.158;2024-03-23T12:40:36;98459.28;;;18.46;55.68
55801;BME280;41730;51.960;20.158;2024-03-23T12:43:12;98456.02;;;18.49;55.70
55801;BME280;41730;51.960;20.158;2024-03-23T12:45:47;98450.52;;;18.56;55.66
55801;BME280;41730;51.960;20.158;2024-03-23T12:48:18;98437.63;;;18.63;55.46
55801;BME280;41730;51.960;20.158;2024-03-23T12:50:49;98433.47;;;18.70;55.38
55801;BME280;41730;51.960;20.158;2024-03-23T12:53:25;98433.79;;;18.77;55.11
55801;BME280;41730;51.960;20.158;2024-03-23T12:55:56;98434.42;;;18.79;54.81
55801;BME280;41730;51.960;20.158;2024-03-23T12:58:27;98432.73;;;18.76;54.50
55801;BME280;41730;51.960;20.158;2024-03-23T13:00:59;98425.27;;;18.71;54.44
55801;BME280;41730;51.960;20.158;2024-03-23T13:03:30;98419.06;;;18.66;54.48
55801;BME280;41730;51.960;20.158;2024-03-23T13:06:01;98407.66;;;18.61;54.49
55801;BME280;41730;51.960;20.158;2024-03-23T13:08:37;98397.80;;;18.56;54.32
55801;BME280;41730;51.960;20.158;2024-03-23T13:11:09;98392.17;;;18.49;54.52
55801;BME280;41730;51.960;20.158;2024-03-23T13:13:40;98391.34;;;18.45;54.94
55801;BME280;41730;51.960;20.158;2024-03-23T13:16:11;98382.17;;;18.41;55.01
55801;BME280;41730;51.960;20.158;2024-03-23T13:18:42;98372.52;;;18.35;55.13
55801;BME280;41730;51.960;20.158;2024-03-23T13:21:13;98372.62;;;18.31;55.26
55801;BME280;41730;51.960;20.158;2024-03-23T13:23:48;98367.45;;;18.29;55.37
55801;BME280;41730;51.960;20.158;2024-03-23T13:26:21;98362.98;;;18.25;55.48
55801;BME280;41730;51.960;20.158;2024-03-23T13:28:52;98363.97;;;18.23;55.46
55801;BME280;41730;51.960;20.158;2024-03-23T13:31:23;98362.39;;;18.20;55.56
55801;BME280;41730;51.960;20.158;2024-03-23T13:33:54;98358.69;;;18.16;55.62
55801;BME280;41730;51.960;20.158;2024-03-23T13:36:25;98361.75;;;18.13;55.74
55801;BME280;41730;51.960;20.158;2024-03-23T13:38:56;98357.33;;;18.09;55.69
55801;BME280;41730;51.960;20.158;2024-03-23T13:41:28;98355.17;;;18.04;55.77
55801;BME280;41730;51.960;20.158;2024-03-23T13:43:59;98347.55;;;18.00;55.88
55801;BME280;41730;51.960;20.158;2024-03-23T13:46:31;98334.91;;;17.97;55.93
55801;BME280;41730;51.960;20.158;2024-03-23T13:49:02;98332.31;;;17.94;55.83
55801;BME280;41730;51.960;20.158;2024-03-23T13:51:34;98324.01;;;17.87;56.22
55801;BME280;41730;51.960;20.158;2024-03-23T13:54:05;98318.71;;;17.78;56.58
55801;BME280;41730;51.960;20.158;2024-03-23T13:56:36;98322.17;;;17.71;56.91
55801;BME280;41730;51.960;20.158;2024-03-23T13:59:08;98314.92;;;17.68;57.01
55801;BME280;41730;51.960;20.158;2024-03-23T14:01:39;98308.51;;;17.71;57.26
55801;BME280;41730;51.960;20.158;2024-03-23T14:04:11;98302.59;;;17.74;57.44
55801;BME280;41730;51.960;20.158;2024-03-23T14:06:42;98296.39;;;17.77;57.49
55801;BME280;41730;51.960;20.158;2024-03-23T14:09:15;98292.57;;;17.78;57.58
55801;BME280;41730;51.960;20.158;2024-03-23T14:11:50;98286.50;;;17.81;57.79
55801;BME280;41730;51.960;20.158;2024-03-23T14:14:21;98287.15;;;17.87;57.86
55801;BME280;41730;51.960;20.158;2024-03-23T14:16:52;98294.80;;;17.86;57.83
55801;BME280;41730;51.960;20.158;2024-03-23T14:19:23;98316.43;;;17.84;57.82
55801;BME280;41730;51.960;20.158;2024-03-23T14:21:54;98340.22;;;17.80;57.85
55801;BME280;41730;51.960;20.158;2024-03-23T14:24:25;98354.83;;;17.73;57.87